Time,TemperatureF,DewpointF,PressureIn,WindDirection,WindDirectionDegrees,WindSpeedMPH,WindSpeedGustMPH,Humidity,HourlyPrecipIn,Conditions,Clouds,dailyrainin,SoftwareType,DateUTC
2013-01-24 00:03:00,-7.5,-15.0,30.19,NE,48,0.0,1.0,69,0.00,,,0.00,Wunderground v.1.15,2013-01-24 05:03:00,
2013-01-24 00:05:00,-7.2,-15.0,30.19,NE,48,0.0,1.0,68,0.00,,,0.00,Wunderground v.1.15,2013-01-24 05:05:00,
2013-01-24 00:06:00,-7.2,-15.0,30.19,NE,48,0.0,1.0,68,0.00,,,0.00,Wunderground v.1.15,2013-01-24 05:06:00,
2013-01-24 00:11:00,-7.0,-14.8,30.19,NE,48,0.0,0.0,68,0.00,,,0.00,Wunderground v.1.15,2013-01-24 05:11:00,
2013-01-24 00:17:00,-6.5,-14.6,30.19,NE,48,0.0,1.0,67,0.00,,,0.00,Wunderground v.1.15,2013-01-24 05:17:00,
2013-01-24 00:23:00,-6.1,-14.5,30.19,NE,48,0.0,1.0,66,0.00,,,0.00,Wunderground v.1.15,2013-01-24 05:23:00,
2013-01-24 00:28:00,-5.9,-14.6,30.19,NE,48,0.0,1.0,65,0.00,,,0.00,Wunderground v.1.15,2013-01-24 05:28:00,
2013-01-24 00:34:00,-6.1,-15.1,30.19,NE,48,0.0,1.0,64,0.00,,,0.00,Wunderground v.1.15,2013-01-24 05:34:00,
2013-01-24 00:39:00,-6.3,-15.3,30.19,NE,48,0.0,1.0,64,0.00,,,0.00,Wunderground v.1.15,2013-01-24 05:39:00,
2013-01-24 00:45:00,-6.5,-15.2,30.19,NE,48,0.0,0.0,65,0.00,,,0.00,Wunderground v.1.15,2013-01-24 05:45:00,
2013-01-24 00:51:00,-6.3,-15.0,30.19,NE,48,0.0,0.0,65,0.00,,,0.00,Wunderground v.1.15,2013-01-24 05:51:00,
2013-01-24 00:56:00,-6.5,-15.2,30.19,NE,48,0.0,0.0,65,0.00,,,0.00,Wunderground v.1.15,2013-01-24 05:56:00,
2013-01-24 01:01:00,-6.8,-15.2,30.19,NE,48,0.0,1.0,66,0.00,,,0.00,Wunderground v.1.15,2013-01-24 06:01:00,
2013-01-24 01:07:00,-6.8,-14.9,30.19,NE,48,2.0,2.0,67,0.00,,,0.00,Wunderground v.1.15,2013-01-24 06:07:00,
2013-01-24 01:13:00,-7.0,-14.8,30.19,NE,48,0.0,1.0,68,0.00,,,0.00,Wunderground v.1.15,2013-01-24 06:13:00,
2013-01-24 01:19:00,-6.8,-14.6,30.19,NE,48,0.0,1.0,68,0.00,,,0.00,Wunderground v.1.15,2013-01-24 06:19:00,
2013-01-24 01:24:00,-7.0,-14.8,30.19,NE,49,0.0,0.0,68,0.00,,,0.00,Wunderground v.1.15,2013-01-24 06:24:00,
2013-01-24 01:29:00,-7.2,-15.0,30.19,NE,49,0.0,0.0,68,0.00,,,0.00,Wunderground v.1.15,2013-01-24 06:29:00,
2013-01-24 01:35:00,-7.0,-14.8,30.19,NE,48,1.0,3.0,68,0.00,,,0.00,Wunderground v.1.15,2013-01-24 06:35:00,
2013-01-24 01:40:00,-6.8,-14.9,30.19,NE,48,0.0,1.0,67,0.00,,,0.00,Wunderground v.1.15,2013-01-24 06:40:00,
2013-01-24 01:46:00,-6.8,-15.2,30.19,NE,49,0.0,1.0,66,0.00,,,0.00,Wunderground v.1.15,2013-01-24 06:46:00,
2013-01-24 01:51:00,-7.0,-15.1,30.19,NE,48,0.0,0.0,67,0.00,,,0.00,Wunderground v.1.15,2013-01-24 06:51:00,
2013-01-24 01:56:00,-7.2,-15.3,30.19,NE,48,0.0,0.0,67,0.00,,,0.00,Wunderground v.1.15,2013-01-24 06:56:00,
2013-01-24 02:01:00,-7.5,-15.3,30.19,NE,48,0.0,0.0,68,0.00,,,0.00,Wunderground v.1.15,2013-01-24 07:01:00,
2013-01-24 02:06:00,-7.5,-15.3,30.19,NE,48,1.0,1.0,68,0.00,,,0.00,Wunderground v.1.15,2013-01-24 07:06:00,
2013-01-24 02:11:00,-7.7,-15.2,30.20,NE,48,0.0,0.0,69,0.00,,,0.00,Wunderground v.1.15,2013-01-24 07:11:00,
2013-01-24 02:16:00,-7.7,-15.2,30.20,NE,48,0.0,0.0,69,0.00,,,0.00,Wunderground v.1.15,2013-01-24 07:16:00,
2013-01-24 02:21:00,-7.5,-15.0,30.20,NE,48,0.0,0.0,69,0.00,,,0.00,Wunderground v.1.15,2013-01-24 07:21:00,
2013-01-24 02:26:00,-7.0,-14.5,30.19,NE,48,0.0,0.0,69,0.00,,,0.00,Wunderground v.1.15,2013-01-24 07:26:00,
2013-01-24 02:31:00,-7.0,-14.5,30.19,NE,48,0.0,0.0,69,0.00,,,0.00,Wunderground v.1.15,2013-01-24 07:31:00,
2013-01-24 02:36:00,-7.0,-14.8,30.19,NE,48,0.0,0.0,68,0.00,,,0.00,Wunderground v.1.15,2013-01-24 07:36:00,
2013-01-24 02:42:00,-7.2,-15.0,30.19,NE,48,0.0,0.0,68,0.00,,,0.00,Wunderground v.1.15,2013-01-24 07:42:00,
2013-01-24 02:47:00,-7.5,-15.3,30.19,NE,48,0.0,0.0,68,0.00,,,0.00,Wunderground v.1.15,2013-01-24 07:47:00,
2013-01-24 02:52:00,-7.7,-15.5,30.19,NE,48,0.0,0.0,68,0.00,,,0.00,Wunderground v.1.15,2013-01-24 07:52:00,
2013-01-24 02:57:00,-7.9,-15.4,30.19,NE,48,0.0,0.0,69,0.00,,,0.00,Wunderground v.1.15,2013-01-24 07:57:00,
2013-01-24 03:02:00,-7.9,-15.4,30.19,NE,48,0.0,0.0,69,0.00,,,0.00,Wunderground v.1.15,2013-01-24 08:02:00,
2013-01-24 03:07:00,-7.5,-15.0,30.19,NE,48,0.0,1.0,69,0.00,,,0.00,Wunderground v.1.15,2013-01-24 08:07:00,
2013-01-24 03:12:00,-7.5,-15.0,30.19,NE,48,0.0,1.0,69,0.00,,,0.00,Wunderground v.1.15,2013-01-24 08:12:00,
2013-01-24 03:17:00,-7.7,-15.5,30.19,NE,48,0.0,1.0,68,0.00,,,0.00,Wunderground v.1.15,2013-01-24 08:17:00,
2013-01-24 03:22:00,-7.9,-15.4,30.19,NE,49,0.0,0.0,69,0.00,,,0.00,Wunderground v.1.15,2013-01-24 08:22:00,
2013-01-24 03:27:00,-8.2,-15.7,30.19,NE,48,0.0,0.0,69,0.00,,,0.00,Wunderground v.1.15,2013-01-24 08:27:00,
2013-01-24 03:32:00,-8.4,-15.9,30.19,NE,48,0.0,0.0,69,0.00,,,0.00,Wunderground v.1.15,2013-01-24 08:32:00,
2013-01-24 03:37:00,-8.6,-16.0,30.19,NE,48,0.0,0.0,69,0.00,,,0.00,Wunderground v.1.15,2013-01-24 08:37:00,
2013-01-24 03:42:00,-8.9,-16.0,30.19,NE,48,0.0,0.0,70,0.00,,,0.00,Wunderground v.1.15,2013-01-24 08:42:00,
2013-01-24 03:47:00,-8.9,-16.0,30.19,NE,48,0.0,0.0,70,0.00,,,0.00,Wunderground v.1.15,2013-01-24 08:47:00,
2013-01-24 03:52:00,-9.1,-16.0,30.19,NE,48,0.0,0.0,71,0.00,,,0.00,Wunderground v.1.15,2013-01-24 08:52:00,
2013-01-24 03:57:00,-9.1,-16.0,30.19,NE,48,0.0,2.0,71,0.00,,,0.00,Wunderground v.1.15,2013-01-24 08:57:00,
2013-01-24 04:02:00,-9.1,-16.0,30.19,NE,48,0.0,0.0,71,0.00,,,0.00,Wunderground v.1.15,2013-01-24 09:02:00,
2013-01-24 04:07:00,-8.6,-15.2,30.19,NE,48,1.0,3.0,72,0.00,,,0.00,Wunderground v.1.15,2013-01-24 09:07:00,
2013-01-24 04:12:00,-8.4,-15.0,30.19,NE,48,2.0,2.0,72,0.00,,,0.00,Wunderground v.1.15,2013-01-24 09:12:00,
2013-01-24 04:17:00,-8.4,-15.0,30.19,NE,48,0.0,2.0,72,0.00,,,0.00,Wunderground v.1.15,2013-01-24 09:17:00,
2013-01-24 04:22:00,-8.4,-15.3,30.19,NE,48,0.0,1.0,71,0.00,,,0.00,Wunderground v.1.15,2013-01-24 09:22:00,
2013-01-24 04:27:00,-8.6,-15.5,30.18,NE,48,0.0,1.0,71,0.00,,,0.00,Wunderground v.1.15,2013-01-24 09:27:00,
2013-01-24 04:32:00,-8.9,-15.5,30.18,NE,48,1.0,1.0,72,0.00,,,0.00,Wunderground v.1.15,2013-01-24 09:32:00,
2013-01-24 04:37:00,-8.6,-15.2,30.18,NE,48,4.0,5.0,72,0.00,,,0.00,Wunderground v.1.15,2013-01-24 09:37:00,
2013-01-24 04:42:00,-8.4,-15.0,30.19,NE,48,1.0,2.0,72,0.00,,,0.00,Wunderground v.1.15,2013-01-24 09:42:00,
2013-01-24 04:48:00,-8.4,-15.3,30.19,NE,48,1.0,2.0,71,0.00,,,0.00,Wunderground v.1.15,2013-01-24 09:48:00,
2013-01-24 04:53:00,-8.4,-15.3,30.19,NE,48,1.0,4.0,71,0.00,,,0.00,Wunderground v.1.15,2013-01-24 09:53:00,
2013-01-24 04:58:00,-8.6,-15.5,30.19,NE,48,0.0,4.0,71,0.00,,,0.00,Wunderground v.1.15,2013-01-24 09:58:00,
2013-01-24 05:03:00,-8.6,-15.5,30.19,NE,48,3.0,3.0,71,0.00,,,0.00,Wunderground v.1.15,2013-01-24 10:03:00,
2013-01-24 05:08:00,-8.6,-15.5,30.19,NE,48,3.0,4.0,71,0.00,,,0.00,Wunderground v.1.15,2013-01-24 10:08:00,
2013-01-24 05:14:00,-8.6,-15.5,30.19,NE,48,0.0,3.0,71,0.00,,,0.00,Wunderground v.1.15,2013-01-24 10:14:00,
2013-01-24 05:19:00,-8.6,-15.5,30.19,NE,48,0.0,3.0,71,0.00,,,0.00,Wunderground v.1.15,2013-01-24 10:19:00,
2013-01-24 05:24:00,-8.6,-15.2,30.19,NE,48,0.0,2.0,72,0.00,,,0.00,Wunderground v.1.15,2013-01-24 10:24:00,
2013-01-24 05:29:00,-8.6,-15.2,30.19,NE,48,5.0,5.0,72,0.00,,,0.00,Wunderground v.1.15,2013-01-24 10:29:00,
2013-01-24 05:34:00,-8.4,-15.0,30.19,NE,48,2.0,5.0,72,0.00,,,0.00,Wunderground v.1.15,2013-01-24 10:34:00,
2013-01-24 05:39:00,-8.2,-15.1,30.19,NE,49,3.0,5.0,71,0.00,,,0.00,Wunderground v.1.15,2013-01-24 10:39:00,
2013-01-24 05:44:00,-8.2,-15.1,30.19,NE,49,1.0,6.0,71,0.00,,,0.00,Wunderground v.1.15,2013-01-24 10:44:00,
2013-01-24 05:49:00,-7.9,-15.1,30.19,NE,49,2.0,6.0,70,0.00,,,0.00,Wunderground v.1.15,2013-01-24 10:49:00,
2013-01-24 05:54:00,-7.9,-15.1,30.19,NE,49,5.0,6.0,70,0.00,,,0.00,Wunderground v.1.15,2013-01-24 10:54:00,
2013-01-24 05:59:00,-7.9,-15.1,30.20,NE,49,2.0,6.0,70,0.00,,,0.00,Wunderground v.1.15,2013-01-24 10:59:00,
2013-01-24 06:04:00,-7.9,-15.1,30.20,NE,49,0.0,4.0,70,0.00,,,0.00,Wunderground v.1.15,2013-01-24 11:04:00,
2013-01-24 06:09:00,-8.2,-15.4,30.20,NE,49,0.0,4.0,70,0.00,,,0.00,Wunderground v.1.15,2013-01-24 11:09:00,
2013-01-24 06:14:00,-8.4,-15.6,30.20,NE,49,0.0,1.0,70,0.00,,,0.00,Wunderground v.1.15,2013-01-24 11:14:00,
2013-01-24 06:19:00,-8.4,-15.6,30.20,NE,49,0.0,1.0,70,0.00,,,0.00,Wunderground v.1.15,2013-01-24 11:19:00,
2013-01-24 06:24:00,-8.6,-15.8,30.20,NE,49,0.0,1.0,70,0.00,,,0.00,Wunderground v.1.15,2013-01-24 11:24:00,
2013-01-24 06:29:00,-8.6,-15.8,30.21,NE,49,0.0,1.0,70,0.00,,,0.00,Wunderground v.1.15,2013-01-24 11:29:00,
2013-01-24 06:34:00,-8.6,-15.8,30.21,NE,49,0.0,2.0,70,0.00,,,0.00,Wunderground v.1.15,2013-01-24 11:34:00,
2013-01-24 06:39:00,-8.6,-15.8,30.21,NE,49,0.0,2.0,70,0.00,,,0.00,Wunderground v.1.15,2013-01-24 11:39:00,
2013-01-24 06:44:00,-8.9,-16.0,30.21,NE,49,0.0,0.0,70,0.00,,,0.00,Wunderground v.1.15,2013-01-24 11:44:00,
2013-01-24 06:49:00,-8.9,-16.0,30.21,NE,49,0.0,0.0,70,0.00,,,0.00,Wunderground v.1.15,2013-01-24 11:49:00,
2013-01-24 06:54:00,-8.9,-16.0,30.21,NE,49,0.0,1.0,70,0.00,,,0.00,Wunderground v.1.15,2013-01-24 11:54:00,
2013-01-24 07:00:00,-8.9,-16.0,30.22,NE,49,0.0,0.0,70,0.00,,,0.00,Wunderground v.1.15,2013-01-24 12:00:00,
2013-01-24 07:05:00,-8.6,-15.5,30.22,NE,49,0.0,2.0,71,0.00,,,0.00,Wunderground v.1.15,2013-01-24 12:05:00,
2013-01-24 07:10:00,-8.4,-15.6,30.22,NE,49,0.0,0.0,70,0.00,,,0.00,Wunderground v.1.15,2013-01-24 12:10:00,
2013-01-24 07:15:00,-8.4,-15.6,30.22,NE,49,0.0,2.0,70,0.00,,,0.00,Wunderground v.1.15,2013-01-24 12:15:00,
2013-01-24 07:20:00,-8.6,-15.8,30.22,NE,49,0.0,0.0,70,0.00,,,0.00,Wunderground v.1.15,2013-01-24 12:20:00,
2013-01-24 07:25:00,-8.6,-15.8,30.22,NE,49,1.0,2.0,70,0.00,,,0.00,Wunderground v.1.15,2013-01-24 12:25:00,
2013-01-24 07:30:00,-8.6,-15.8,30.22,NE,49,2.0,2.0,70,0.00,,,0.00,Wunderground v.1.15,2013-01-24 12:30:00,
2013-01-24 07:35:00,-8.4,-15.6,30.22,NE,51,5.0,7.0,70,0.00,,,0.00,Wunderground v.1.15,2013-01-24 12:35:00,
2013-01-24 07:40:00,-8.4,-15.6,30.22,NE,51,2.0,3.0,70,0.00,,,0.00,Wunderground v.1.15,2013-01-24 12:40:00,
2013-01-24 07:45:00,-7.9,-15.1,30.22,NE,51,1.0,5.0,70,0.00,,,0.00,Wunderground v.1.15,2013-01-24 12:45:00,
2013-01-24 07:50:00,-7.9,-15.1,30.22,NE,52,3.0,3.0,70,0.00,,,0.00,Wunderground v.1.15,2013-01-24 12:50:00,
2013-01-24 07:55:00,-7.7,-15.2,30.22,NE,52,0.0,6.0,69,0.00,,,0.00,Wunderground v.1.15,2013-01-24 12:55:00,
2013-01-24 08:00:00,-7.7,-15.2,30.23,NE,53,1.0,3.0,69,0.00,,,0.00,Wunderground v.1.15,2013-01-24 13:00:00,
2013-01-24 08:05:00,-7.7,-15.2,30.23,ENE,62,3.0,7.0,69,0.00,,,0.00,Wunderground v.1.15,2013-01-24 13:05:00,
2013-01-24 08:10:00,-7.7,-15.2,30.24,ENE,65,4.0,6.0,69,0.00,,,0.00,Wunderground v.1.15,2013-01-24 13:10:00,
2013-01-24 08:15:00,-7.7,-15.2,30.24,ENE,66,2.0,6.0,69,0.00,,,0.00,Wunderground v.1.15,2013-01-24 13:15:00,
2013-01-24 08:20:00,-7.7,-15.2,30.24,ESE,103,3.0,4.0,69,0.00,,,0.00,Wunderground v.1.15,2013-01-24 13:20:00,
2013-01-24 08:25:00,-7.5,-14.7,30.25,ESE,106,2.0,5.0,70,0.00,,,0.00,Wunderground v.1.15,2013-01-24 13:25:00,
2013-01-24 08:30:00,-7.5,-14.7,30.25,ESE,106,4.0,4.0,70,0.00,,,0.00,Wunderground v.1.15,2013-01-24 13:30:00,
2013-01-24 08:35:00,-7.2,-14.4,30.25,ESE,107,2.0,6.0,70,0.00,,,0.00,Wunderground v.1.15,2013-01-24 13:35:00,
2013-01-24 08:40:00,-6.8,-14.0,30.25,ESE,108,6.0,6.0,70,0.00,,,0.00,Wunderground v.1.15,2013-01-24 13:40:00,
2013-01-24 08:45:00,-6.3,-13.5,30.25,ESE,108,0.0,6.0,70,0.00,,,0.00,Wunderground v.1.15,2013-01-24 13:45:00,
2013-01-24 08:50:00,-6.1,-13.6,30.25,ESE,110,1.0,3.0,69,0.00,,,0.00,Wunderground v.1.15,2013-01-24 13:50:00,
2013-01-24 08:55:00,-6.3,-13.8,30.25,ESE,113,2.0,7.0,69,0.00,,,0.00,Wunderground v.1.15,2013-01-24 13:55:00,
2013-01-24 09:00:00,-6.1,-13.3,30.25,ESE,114,3.0,4.0,70,0.00,,,0.00,Wunderground v.1.15,2013-01-24 14:00:00,
2013-01-24 09:05:00,-5.6,-13.2,30.25,ESE,115,0.0,6.0,69,0.00,,,0.00,Wunderground v.1.15,2013-01-24 14:05:00,
2013-01-24 09:10:00,-5.4,-13.0,30.25,ESE,115,3.0,4.0,69,0.00,,,0.00,Wunderground v.1.15,2013-01-24 14:10:00,
2013-01-24 09:15:00,-4.8,-12.1,30.25,ESE,115,3.0,5.0,70,0.00,,,0.00,Wunderground v.1.15,2013-01-24 14:15:00,
2013-01-24 09:20:00,-3.9,-11.5,30.25,ESE,115,1.0,1.0,69,0.00,,,0.00,Wunderground v.1.15,2013-01-24 14:20:00,
2013-01-24 09:25:00,-2.8,-10.5,30.25,ESE,115,2.0,3.0,69,0.00,,,0.00,Wunderground v.1.15,2013-01-24 14:25:00,
2013-01-24 09:30:00,-3.3,-11.5,30.26,ESE,115,1.0,1.0,67,0.00,,,0.00,Wunderground v.1.15,2013-01-24 14:30:00,
2013-01-24 09:35:00,-3.5,-12.0,30.26,ESE,115,0.0,3.0,66,0.00,,,0.00,Wunderground v.1.15,2013-01-24 14:35:00,
2013-01-24 09:40:00,-2.6,-11.2,30.26,ESE,115,2.0,2.0,66,0.00,,,0.00,Wunderground v.1.15,2013-01-24 14:40:00,
2013-01-24 09:45:00,-2.8,-11.7,30.26,ESE,120,2.0,5.0,65,0.00,,,0.00,Wunderground v.1.15,2013-01-24 14:45:00,
2013-01-24 09:50:00,-1.8,-10.7,30.26,ESE,120,3.0,5.0,65,0.00,,,0.00,Wunderground v.1.15,2013-01-24 14:50:00,
2013-01-24 09:55:00,-1.0,-9.9,30.26,ESE,120,6.0,6.0,65,0.00,,,0.00,Wunderground v.1.15,2013-01-24 14:55:00,
2013-01-24 10:00:00,-0.6,-10.2,30.26,ESE,120,2.0,2.0,63,0.00,,,0.00,Wunderground v.1.15,2013-01-24 15:00:00,
2013-01-24 10:05:00,1.1,-8.3,30.26,ESE,120,1.0,3.0,64,0.00,,,0.00,Wunderground v.1.15,2013-01-24 15:05:00,
2013-01-24 10:10:00,0.1,-10.5,30.26,ESE,120,2.0,3.0,60,0.00,,,0.00,Wunderground v.1.15,2013-01-24 15:10:00,
2013-01-24 10:16:00,-0.4,-11.0,30.26,ESE,120,0.0,4.0,60,0.00,,,0.00,Wunderground v.1.15,2013-01-24 15:16:00,
2013-01-24 10:20:00,-0.4,-10.7,30.26,ESE,120,0.0,2.0,61,0.00,,,0.00,Wunderground v.1.15,2013-01-24 15:20:00,
2013-01-24 10:25:00,0.1,-10.2,30.26,ESE,120,0.0,2.0,61,0.00,,,0.00,Wunderground v.1.15,2013-01-24 15:25:00,
2013-01-24 10:30:00,0.9,-9.4,30.26,ESE,120,0.0,0.0,61,0.00,,,0.00,Wunderground v.1.15,2013-01-24 15:30:00,
2013-01-24 10:36:00,1.5,-9.2,30.26,ESE,120,0.0,4.0,60,0.00,,,0.00,Wunderground v.1.15,2013-01-24 15:36:00,
2013-01-24 10:40:00,1.1,-9.9,30.26,ESE,120,1.0,3.0,59,0.00,,,0.00,Wunderground v.1.15,2013-01-24 15:40:00,
2013-01-24 10:45:00,1.1,-9.6,30.26,ESE,121,0.0,3.0,60,0.00,,,0.00,Wunderground v.1.15,2013-01-24 15:45:00,
2013-01-24 10:50:00,0.9,-9.8,30.26,South,169,4.0,5.0,60,0.00,,,0.00,Wunderground v.1.15,2013-01-24 15:50:00,
2013-01-24 10:56:00,1.1,-8.6,30.26,South,176,2.0,5.0,63,0.00,,,0.00,Wunderground v.1.15,2013-01-24 15:56:00,
2013-01-24 11:01:00,0.9,-9.4,30.26,South,176,3.0,3.0,61,0.00,,,0.00,Wunderground v.1.15,2013-01-24 16:01:00,
2013-01-24 11:06:00,1.8,-8.2,30.26,South,177,2.0,4.0,62,0.00,,,0.00,Wunderground v.1.15,2013-01-24 16:06:00,
2013-01-24 11:11:00,1.7,-8.7,30.26,South,178,1.0,3.0,61,0.00,,,0.00,Wunderground v.1.15,2013-01-24 16:11:00,
2013-01-24 11:16:00,2.2,-8.2,30.26,South,178,0.0,3.0,61,0.00,,,0.00,Wunderground v.1.15,2013-01-24 16:16:00,
2013-01-24 11:21:00,3.2,-7.6,30.26,South,178,0.0,4.0,60,0.00,,,0.00,Wunderground v.1.15,2013-01-24 16:21:00,
2013-01-24 11:26:00,2.8,-8.7,30.25,South,178,0.0,5.0,58,0.00,,,0.00,Wunderground v.1.15,2013-01-24 16:26:00,
2013-01-24 11:31:00,4.1,-7.1,30.25,South,178,0.0,2.0,59,0.00,,,0.00,Wunderground v.1.15,2013-01-24 16:31:00,
2013-01-24 11:36:00,4.3,-8.0,30.25,South,181,2.0,5.0,56,0.00,,,0.00,Wunderground v.1.15,2013-01-24 16:36:00,
2013-01-24 11:41:00,3.4,-8.1,30.25,South,183,0.0,2.0,58,0.00,,,0.00,Wunderground v.1.15,2013-01-24 16:41:00,
2013-01-24 11:46:00,3.7,-7.5,30.25,SSW,210,5.0,6.0,59,0.00,,,0.00,Wunderground v.1.15,2013-01-24 16:46:00,
2013-01-24 11:51:00,3.2,-7.9,30.25,SSW,210,2.0,4.0,59,0.00,,,0.00,Wunderground v.1.15,2013-01-24 16:51:00,
2013-01-24 11:56:00,3.4,-8.8,30.24,SSW,210,0.0,6.0,56,0.00,,,0.00,Wunderground v.1.15,2013-01-24 16:56:00,
2013-01-24 12:01:00,3.9,-8.0,30.24,SSW,210,3.0,5.0,57,0.00,,,0.00,Wunderground v.1.15,2013-01-24 17:01:00,
2013-01-24 12:06:00,3.7,-8.9,30.24,West,269,0.0,9.0,55,0.00,,,0.00,Wunderground v.1.15,2013-01-24 17:06:00,
2013-01-24 12:11:00,4.3,-7.6,30.24,West,264,3.0,6.0,57,0.00,,,0.00,Wunderground v.1.15,2013-01-24 17:11:00,
2013-01-24 12:16:00,4.3,-8.7,30.24,West,263,0.0,6.0,54,0.00,,,0.00,Wunderground v.1.15,2013-01-24 17:16:00,
2013-01-24 12:22:00,4.7,-8.3,30.24,WSW,244,0.0,6.0,54,0.00,,,0.00,Wunderground v.1.15,2013-01-24 17:22:00,
2013-01-24 12:27:00,4.8,-8.6,30.22,SSW,208,4.0,7.0,53,0.00,,,0.00,Wunderground v.1.15,2013-01-24 17:27:00,
2013-01-24 12:32:00,5.0,-8.0,30.22,SSW,205,3.0,4.0,54,0.00,,,0.00,Wunderground v.1.15,2013-01-24 17:32:00,
2013-01-24 12:37:00,5.4,-8.8,30.22,SSW,203,4.0,6.0,51,0.00,,,0.00,Wunderground v.1.15,2013-01-24 17:37:00,
2013-01-24 12:42:00,6.0,-8.7,30.20,SSW,203,4.0,4.0,50,0.00,,,0.00,Wunderground v.1.15,2013-01-24 17:42:00,
2013-01-24 12:47:00,6.9,-8.7,30.20,SSW,203,0.0,4.0,48,0.00,,,0.00,Wunderground v.1.15,2013-01-24 17:47:00,
2013-01-24 12:52:00,8.3,-7.4,30.20,SSW,205,0.0,4.0,48,0.00,,,0.00,Wunderground v.1.15,2013-01-24 17:52:00,
2013-01-24 12:58:00,10.4,-6.3,30.20,SSW,205,3.0,4.0,46,0.00,,,0.00,Wunderground v.1.15,2013-01-24 17:58:00,
2013-01-24 13:03:00,8.4,-8.6,30.20,West,259,4.0,8.0,45,0.00,,,0.00,Wunderground v.1.15,2013-01-24 18:03:00,
2013-01-24 13:08:00,7.6,-8.5,30.20,WSW,249,2.0,8.0,47,0.00,,,0.00,Wunderground v.1.15,2013-01-24 18:08:00,
2013-01-24 13:13:00,8.1,-8.0,30.20,WSW,249,1.0,4.0,47,0.00,,,0.00,Wunderground v.1.15,2013-01-24 18:13:00,
2013-01-24 13:19:00,7.9,-9.1,30.20,WSW,248,3.0,5.0,45,0.00,,,0.00,Wunderground v.1.15,2013-01-24 18:19:00,
2013-01-24 13:24:00,7.7,-8.8,30.20,WSW,242,5.0,7.0,46,0.00,,,0.00,Wunderground v.1.15,2013-01-24 18:24:00,
2013-01-24 13:29:00,7.7,-8.8,30.19,SW,217,2.0,7.0,46,0.00,,,0.00,Wunderground v.1.15,2013-01-24 18:29:00,
2013-01-24 13:34:00,7.9,-8.2,30.19,SSW,213,7.0,7.0,47,0.00,,,0.00,Wunderground v.1.15,2013-01-24 18:34:00,
2013-01-24 13:39:00,7.9,-8.6,30.19,WSW,240,6.0,9.0,46,0.00,,,0.00,Wunderground v.1.15,2013-01-24 18:39:00,
2013-01-24 13:44:00,8.6,-8.0,30.18,WSW,238,2.0,5.0,46,0.00,,,0.00,Wunderground v.1.15,2013-01-24 18:44:00,
2013-01-24 13:49:00,9.0,-8.1,30.18,West,277,1.0,7.0,45,0.00,,,0.00,Wunderground v.1.15,2013-01-24 18:49:00,
2013-01-24 13:54:00,8.8,-8.3,30.18,WNW,288,0.0,7.0,45,0.00,,,0.00,Wunderground v.1.15,2013-01-24 18:54:00,
2013-01-24 13:59:00,9.3,-7.8,30.18,West,267,5.0,8.0,45,0.00,,,0.00,Wunderground v.1.15,2013-01-24 18:59:00,
2013-01-24 14:04:00,9.0,-8.5,30.18,West,264,3.0,9.0,44,0.00,,,0.00,Wunderground v.1.15,2013-01-24 19:04:00,
2013-01-24 14:09:00,9.2,-7.4,30.18,WNW,300,5.0,10.0,46,0.00,,,0.00,Wunderground v.1.15,2013-01-24 19:09:00,
2013-01-24 14:14:00,9.0,-7.2,30.18,WSW,252,5.0,9.0,47,0.00,,,0.00,Wunderground v.1.15,2013-01-24 19:14:00,
2013-01-24 14:19:00,9.3,-6.9,30.18,WSW,252,7.0,9.0,47,0.00,,,0.00,Wunderground v.1.15,2013-01-24 19:19:00,
2013-01-24 14:24:00,9.7,-7.0,30.18,WNW,296,6.0,11.0,46,0.00,,,0.00,Wunderground v.1.15,2013-01-24 19:24:00,
2013-01-24 14:29:00,9.9,-5.9,30.19,NW,312,9.0,11.0,48,0.00,,,0.00,Wunderground v.1.15,2013-01-24 19:29:00,
2013-01-24 14:34:00,10.4,-5.9,30.19,WNW,296,6.0,7.0,47,0.00,,,0.00,Wunderground v.1.15,2013-01-24 19:34:00,
2013-01-24 14:39:00,10.5,-4.5,30.19,WNW,295,3.0,7.0,50,0.00,,,0.00,Wunderground v.1.15,2013-01-24 19:39:00,
2013-01-24 14:44:00,10.4,-5.4,30.20,West,267,5.0,10.0,48,0.00,,,0.00,Wunderground v.1.15,2013-01-24 19:44:00,
2013-01-24 14:49:00,10.4,-5.4,30.20,West,267,2.0,10.0,48,0.00,,,0.00,Wunderground v.1.15,2013-01-24 19:49:00,
2013-01-24 14:54:00,11.1,-5.2,30.20,WNW,300,9.0,10.0,47,0.00,,,0.00,Wunderground v.1.15,2013-01-24 19:54:00,
2013-01-24 14:59:00,11.7,-7.0,30.20,NW,309,9.0,15.0,42,0.00,,,0.00,Wunderground v.1.15,2013-01-24 19:59:00,
2013-01-24 15:04:00,12.4,-8.4,30.20,NNW,345,6.0,18.0,38,0.00,,,0.00,Wunderground v.1.15,2013-01-24 20:04:00,
2013-01-24 15:09:00,13.1,-13.3,30.20,NW,310,18.0,19.0,29,0.00,,,0.00,Wunderground v.1.15,2013-01-24 20:09:00,
2013-01-24 15:14:00,13.1,-14.7,30.20,NW,319,10.0,20.0,27,0.00,,,0.00,Wunderground v.1.15,2013-01-24 20:14:00,
2013-01-24 15:19:00,12.8,-14.2,30.20,NW,309,11.0,20.0,28,0.00,,,0.00,Wunderground v.1.15,2013-01-24 20:19:00,
2013-01-24 15:24:00,12.4,-14.6,30.20,NW,317,10.0,18.0,28,0.00,,,0.00,Wunderground v.1.15,2013-01-24 20:24:00,
2013-01-24 15:29:00,12.3,-14.0,30.20,WNW,300,7.0,18.0,29,0.00,,,0.00,Wunderground v.1.15,2013-01-24 20:29:00,
2013-01-24 15:34:00,11.9,-15.7,30.20,NW,315,15.0,20.0,27,0.00,,,0.00,Wunderground v.1.15,2013-01-24 20:34:00,
2013-01-24 15:39:00,11.9,-15.0,30.20,NNW,334,5.0,20.0,28,0.00,,,0.00,Wunderground v.1.15,2013-01-24 20:39:00,
2013-01-24 15:44:00,11.7,-14.5,30.21,WNW,300,12.0,19.0,29,0.00,,,0.00,Wunderground v.1.15,2013-01-24 20:44:00,
2013-01-24 15:49:00,11.7,-13.8,30.21,NW,316,9.0,19.0,30,0.00,,,0.00,Wunderground v.1.15,2013-01-24 20:49:00,
2013-01-24 15:54:00,11.6,-13.9,30.21,NW,325,11.0,16.0,30,0.00,,,0.00,Wunderground v.1.15,2013-01-24 20:54:00,
2013-01-24 15:59:00,11.6,-13.3,30.22,NW,309,12.0,16.0,31,0.00,,,0.00,Wunderground v.1.15,2013-01-24 20:59:00,
2013-01-24 16:04:00,11.2,-14.3,30.22,NW,326,14.0,22.0,30,0.00,,,0.00,Wunderground v.1.15,2013-01-24 21:04:00,
2013-01-24 16:09:00,11.1,-14.4,30.22,NNW,329,8.0,24.0,30,0.00,,,0.00,Wunderground v.1.15,2013-01-24 21:09:00,
2013-01-24 16:14:00,11.1,-13.7,30.22,WNW,298,14.0,22.0,31,0.00,,,0.00,Wunderground v.1.15,2013-01-24 21:14:00,
2013-01-24 16:19:00,11.1,-13.7,30.22,NW,319,9.0,12.0,31,0.00,,,0.00,Wunderground v.1.15,2013-01-24 21:19:00,
2013-01-24 16:25:00,10.9,-14.5,30.22,NW,304,22.0,25.0,30,0.00,,,0.00,Wunderground v.1.15,2013-01-24 21:25:00,
2013-01-24 16:30:00,10.9,-13.2,30.22,NW,317,15.0,19.0,32,0.00,,,0.00,Wunderground v.1.15,2013-01-24 21:30:00,
2013-01-24 16:35:00,10.7,-12.8,30.22,NW,322,13.0,20.0,33,0.00,,,0.00,Wunderground v.1.15,2013-01-24 21:35:00,
2013-01-24 16:40:00,10.9,-12.6,30.22,NW,315,17.0,17.0,33,0.00,,,0.00,Wunderground v.1.15,2013-01-24 21:40:00,
2013-01-24 16:45:00,10.7,-13.4,30.23,NW,305,16.0,24.0,32,0.00,,,0.00,Wunderground v.1.15,2013-01-24 21:45:00,
2013-01-24 16:50:00,10.5,-12.4,30.23,NNW,329,14.0,14.0,34,0.00,,,0.00,Wunderground v.1.15,2013-01-24 21:50:00,
2013-01-24 16:55:00,10.5,-12.4,30.23,NW,323,6.0,22.0,34,0.00,,,0.00,Wunderground v.1.15,2013-01-24 21:55:00,
2013-01-24 17:00:00,10.4,-11.9,30.24,NW,322,6.0,16.0,35,0.00,,,0.00,Wunderground v.1.15,2013-01-24 22:00:00,
2013-01-24 17:05:00,10.0,-11.1,30.24,NW,310,9.0,20.0,37,0.00,,,0.00,Wunderground v.1.15,2013-01-24 22:05:00,
2013-01-24 17:10:00,9.9,-11.2,30.24,West,276,11.0,11.0,37,0.00,,,0.00,Wunderground v.1.15,2013-01-24 22:10:00,
2013-01-24 17:15:00,9.7,-10.9,30.24,NNW,340,10.0,23.0,38,0.00,,,0.00,Wunderground v.1.15,2013-01-24 22:15:00,
2013-01-24 17:20:00,9.7,-11.4,30.24,NW,320,4.0,9.0,37,0.00,,,0.00,Wunderground v.1.15,2013-01-24 22:20:00,
2013-01-24 17:25:00,9.5,-11.1,30.25,NW,309,16.0,19.0,38,0.00,,,0.00,Wunderground v.1.15,2013-01-24 22:25:00,
2013-01-24 17:30:00,9.3,-11.2,30.25,NW,314,4.0,14.0,38,0.00,,,0.00,Wunderground v.1.15,2013-01-24 22:30:00,
2013-01-24 17:35:00,9.2,-11.9,30.25,NW,310,5.0,17.0,37,0.00,,,0.00,Wunderground v.1.15,2013-01-24 22:35:00,
2013-01-24 17:40:00,9.2,-10.3,30.26,NNW,347,4.0,11.0,40,0.00,,,0.00,Wunderground v.1.15,2013-01-24 22:40:00,
2013-01-24 17:45:00,9.0,-10.5,30.26,WSW,257,6.0,19.0,40,0.00,,,0.00,Wunderground v.1.15,2013-01-24 22:45:00,
2013-01-24 17:50:00,9.2,-9.8,30.26,NW,306,6.0,10.0,41,0.00,,,0.00,Wunderground v.1.15,2013-01-24 22:50:00,
2013-01-24 17:55:00,9.2,-10.3,30.27,NW,316,14.0,22.0,40,0.00,,,0.00,Wunderground v.1.15,2013-01-24 22:55:00,
2013-01-24 18:00:00,9.0,-11.0,30.27,NW,321,9.0,23.0,39,0.00,,,0.00,Wunderground v.1.15,2013-01-24 23:00:00,
2013-01-24 18:05:00,9.0,-11.0,30.27,NW,305,9.0,24.0,39,0.00,,,0.00,Wunderground v.1.15,2013-01-24 23:05:00,
2013-01-24 18:11:00,8.8,-10.7,30.28,NW,315,12.0,13.0,40,0.00,,,0.00,Wunderground v.1.15,2013-01-24 23:11:00,
2013-01-24 18:16:00,8.8,-10.7,30.28,NW,323,19.0,29.0,40,0.00,,,0.00,Wunderground v.1.15,2013-01-24 23:16:00,
2013-01-24 18:21:00,8.8,-9.7,30.28,NW,321,10.0,11.0,42,0.00,,,0.00,Wunderground v.1.15,2013-01-24 23:21:00,
2013-01-24 18:26:00,9.0,-11.0,30.28,NW,317,3.0,20.0,39,0.00,,,0.00,Wunderground v.1.15,2013-01-24 23:26:00,
2013-01-24 18:31:00,9.0,-11.0,30.28,NNW,348,6.0,15.0,39,0.00,,,0.00,Wunderground v.1.15,2013-01-24 23:31:00,
2013-01-24 18:37:00,9.0,-12.0,30.28,NNW,335,9.0,18.0,37,0.00,,,0.00,Wunderground v.1.15,2013-01-24 23:37:00,
2013-01-24 18:42:00,9.0,-11.5,30.29,NW,325,17.0,17.0,38,0.00,,,0.00,Wunderground v.1.15,2013-01-24 23:42:00,
2013-01-24 18:47:00,9.0,-11.0,30.29,NNW,338,11.0,22.0,39,0.00,,,0.00,Wunderground v.1.15,2013-01-24 23:47:00,
2013-01-24 18:52:00,8.8,-10.7,30.29,NW,319,3.0,17.0,40,0.00,,,0.00,Wunderground v.1.15,2013-01-24 23:52:00,
2013-01-24 18:57:00,8.8,-11.2,30.30,NW,318,3.0,18.0,39,0.00,,,0.00,Wunderground v.1.15,2013-01-24 23:57:00,
2013-01-24 19:02:00,8.8,-10.7,30.30,NW,315,21.0,21.0,40,0.00,,,0.00,Wunderground v.1.15,2013-01-25 00:02:00,
2013-01-24 19:07:00,9.0,-10.5,30.30,NW,311,7.0,24.0,40,0.00,,,0.00,Wunderground v.1.15,2013-01-25 00:07:00,
2013-01-24 19:12:00,9.0,-11.5,30.31,North,355,13.0,15.0,38,0.00,,,0.00,Wunderground v.1.15,2013-01-25 00:12:00,
2013-01-24 19:17:00,8.8,-11.7,30.31,NNW,334,6.0,25.0,38,0.00,,,0.00,Wunderground v.1.15,2013-01-25 00:17:00,
2013-01-24 19:22:00,8.6,-10.3,30.31,WNW,302,10.0,20.0,41,0.00,,,0.00,Wunderground v.1.15,2013-01-25 00:22:00,
2013-01-24 19:27:00,8.6,-9.8,30.30,NNW,337,13.0,20.0,42,0.00,,,0.00,Wunderground v.1.15,2013-01-25 00:27:00,
2013-01-24 19:32:00,8.4,-9.5,30.30,NW,309,5.0,13.0,43,0.00,,,0.00,Wunderground v.1.15,2013-01-25 00:32:00,
2013-01-24 19:37:00,8.4,-10.0,30.30,NW,315,11.0,17.0,42,0.00,,,0.00,Wunderground v.1.15,2013-01-25 00:37:00,
2013-01-24 19:42:00,8.4,-9.5,30.31,North,360,10.0,16.0,43,0.00,,,0.00,Wunderground v.1.15,2013-01-25 00:42:00,
2013-01-24 19:47:00,8.4,-8.6,30.31,NW,311,2.0,16.0,45,0.00,,,0.00,Wunderground v.1.15,2013-01-25 00:47:00,
2013-01-24 19:52:00,8.3,-8.7,30.31,NW,325,6.0,12.0,45,0.00,,,0.00,Wunderground v.1.15,2013-01-25 00:52:00,
2013-01-24 19:57:00,8.4,-9.1,30.31,North,350,1.0,20.0,44,0.00,,,0.00,Wunderground v.1.15,2013-01-25 00:57:00,
2013-01-24 20:02:00,8.3,-9.2,30.31,NNW,330,6.0,15.0,44,0.00,,,0.00,Wunderground v.1.15,2013-01-25 01:02:00,
2013-01-24 20:07:00,8.3,-9.6,30.31,NNW,335,7.0,15.0,43,0.00,,,0.00,Wunderground v.1.15,2013-01-25 01:07:00,
2013-01-24 20:12:00,8.4,-9.5,30.31,NW,325,2.0,10.0,43,0.00,,,0.00,Wunderground v.1.15,2013-01-25 01:12:00,
2013-01-24 20:17:00,8.3,-9.2,30.31,NNW,342,7.0,10.0,44,0.00,,,0.00,Wunderground v.1.15,2013-01-25 01:17:00,
2013-01-24 20:22:00,8.3,-9.2,30.31,NW,319,1.0,10.0,44,0.00,,,0.00,Wunderground v.1.15,2013-01-25 01:22:00,
2013-01-24 20:27:00,8.3,-8.7,30.31,NW,323,3.0,10.0,45,0.00,,,0.00,Wunderground v.1.15,2013-01-25 01:27:00,
2013-01-24 20:32:00,8.3,-8.7,30.31,NW,323,4.0,10.0,45,0.00,,,0.00,Wunderground v.1.15,2013-01-25 01:32:00,
2013-01-24 20:38:00,8.3,-9.2,30.31,NNW,337,9.0,13.0,44,0.00,,,0.00,Wunderground v.1.15,2013-01-25 01:38:00,
2013-01-24 20:43:00,8.4,-8.6,30.32,NNW,340,0.0,9.0,45,0.00,,,0.00,Wunderground v.1.15,2013-01-25 01:43:00,
2013-01-24 20:48:00,8.3,-8.7,30.32,NNW,345,4.0,16.0,45,0.00,,,0.00,Wunderground v.1.15,2013-01-25 01:48:00,
2013-01-24 20:53:00,8.1,-8.4,30.32,NNW,342,5.0,12.0,46,0.00,,,0.00,Wunderground v.1.15,2013-01-25 01:53:00,
2013-01-24 20:58:00,7.9,-8.6,30.32,NW,325,4.0,13.0,46,0.00,,,0.00,Wunderground v.1.15,2013-01-25 01:58:00,
2013-01-24 21:03:00,7.7,-9.3,30.32,NW,311,2.0,11.0,45,0.00,,,0.00,Wunderground v.1.15,2013-01-25 02:03:00,
2013-01-24 21:08:00,7.9,-9.5,30.32,NNW,340,2.0,16.0,44,0.00,,,0.00,Wunderground v.1.15,2013-01-25 02:08:00,
2013-01-24 21:13:00,7.7,-9.7,30.32,NNW,338,6.0,11.0,44,0.00,,,0.00,Wunderground v.1.15,2013-01-25 02:13:00,
2013-01-24 21:18:00,7.7,-10.2,30.32,NW,324,0.0,16.0,43,0.00,,,0.00,Wunderground v.1.15,2013-01-25 02:18:00,
2013-01-24 21:49:00,7.2,-10.2,30.33,North,355,3.0,5.0,44,0.00,,,0.00,Wunderground v.1.15,2013-01-25 02:49:00,
2013-01-24 21:54:00,7.0,-10.4,30.33,NNW,341,3.0,7.0,44,0.00,,,0.00,Wunderground v.1.15,2013-01-25 02:54:00,
2013-01-24 21:59:00,6.9,-10.0,30.33,North,349,1.0,5.0,45,0.00,,,0.00,Wunderground v.1.15,2013-01-25 02:59:00,
2013-01-24 22:04:00,6.9,-10.0,30.33,NNW,348,3.0,14.0,45,0.00,,,0.00,Wunderground v.1.15,2013-01-25 03:04:00,
2013-01-24 22:09:00,6.9,-10.0,30.33,North,350,1.0,14.0,45,0.00,,,0.00,Wunderground v.1.15,2013-01-25 03:09:00,
2013-01-24 22:14:00,6.9,-9.6,30.33,North,355,2.0,12.0,46,0.00,,,0.00,Wunderground v.1.15,2013-01-25 03:14:00,
2013-01-24 22:19:00,6.7,-9.7,30.33,North,355,6.0,12.0,46,0.00,,,0.00,Wunderground v.1.15,2013-01-25 03:19:00,
2013-01-24 22:24:00,6.5,-9.5,30.33,North,355,1.0,10.0,47,0.00,,,0.00,Wunderground v.1.15,2013-01-25 03:24:00,
2013-01-24 22:29:00,6.5,-9.5,30.34,North,350,1.0,12.0,47,0.00,,,0.00,Wunderground v.1.15,2013-01-25 03:29:00,
2013-01-24 22:34:00,6.7,-8.9,30.34,NNW,340,2.0,13.0,48,0.00,,,0.00,Wunderground v.1.15,2013-01-25 03:34:00,
2013-01-24 22:39:00,6.7,-9.3,30.34,NNW,333,2.0,13.0,47,0.00,,,0.00,Wunderground v.1.15,2013-01-25 03:39:00,
2013-01-24 22:44:00,6.9,-9.1,30.35,NW,317,11.0,17.0,47,0.00,,,0.00,Wunderground v.1.15,2013-01-25 03:44:00,
2013-01-24 22:49:00,6.9,-9.6,30.35,NW,324,3.0,21.0,46,0.00,,,0.00,Wunderground v.1.15,2013-01-25 03:49:00,
2013-01-24 22:54:00,6.9,-10.0,30.35,NW,312,4.0,20.0,45,0.00,,,0.00,Wunderground v.1.15,2013-01-25 03:54:00,
2013-01-24 22:59:00,6.7,-10.2,30.35,North,351,11.0,20.0,45,0.00,,,0.00,Wunderground v.1.15,2013-01-25 03:59:00,
2013-01-24 23:04:00,6.7,-10.2,30.35,NNW,342,1.0,13.0,45,0.00,,,0.00,Wunderground v.1.15,2013-01-25 04:04:00,
2013-01-24 23:09:00,6.7,-10.2,30.35,North,355,3.0,14.0,45,0.00,,,0.00,Wunderground v.1.15,2013-01-25 04:09:00,
2013-01-24 23:14:00,6.5,-9.9,30.36,North,9,3.0,10.0,46,0.00,,,0.00,Wunderground v.1.15,2013-01-25 04:14:00,
2013-01-24 23:19:00,6.5,-10.4,30.36,North,349,6.0,10.0,45,0.00,,,0.00,Wunderground v.1.15,2013-01-25 04:19:00,
2013-01-24 23:25:00,6.5,-10.4,30.36,North,355,10.0,15.0,45,0.00,,,0.00,Wunderground v.1.15,2013-01-25 04:25:00,
2013-01-24 23:30:00,6.5,-10.4,30.35,NNW,348,6.0,9.0,45,0.00,,,0.00,Wunderground v.1.15,2013-01-25 04:30:00,
2013-01-24 23:35:00,6.5,-9.9,30.35,NNW,336,6.0,15.0,46,0.00,,,0.00,Wunderground v.1.15,2013-01-25 04:35:00,
2013-01-24 23:40:00,6.3,-10.1,30.35,North,355,5.0,9.0,46,0.00,,,0.00,Wunderground v.1.15,2013-01-25 04:40:00,
2013-01-24 23:45:00,6.5,-10.4,30.36,NNW,327,11.0,19.0,45,0.00,,,0.00,Wunderground v.1.15,2013-01-25 04:45:00,
2013-01-24 23:50:00,6.5,-10.4,30.36,NNW,340,3.0,12.0,45,0.00,,,0.00,Wunderground v.1.15,2013-01-25 04:50:00,
2013-01-24 23:55:00,6.3,-9.2,30.36,North,360,3.0,12.0,48,0.00,,,0.00,Wunderground v.1.15,2013-01-25 04:55:00,